CYED/YED METAR and TAF weather

Enter ICAO airport designator
Station Type Date Time Source
CYED METAR 2022/06/29 21:00 UTC NOAA

CYED 292100Z 31002KT 15SM SCT030 BKN040 OVC250 20/10 A2985 RMK CU3CU4CI1 DENSITY ALT 3648FT LAST OBS /NEXT 051300 UTC SLP111


Station Type Date Time Source
CYED Decoded METAR 2022/06/29 21:00 UTC NOAA

Edmonton Namao Alta., Canada (CYED) 53-40N 113-28W 688M
Jun 29, 2022 - 05:00 PM EDT / 2022.06.29 2100 UTC
Wind: from the NW (310 degrees) at 2 MPH (2 KT):0
Visibility: 15 mile(s):0
Sky conditions: overcast
Temperature: 68 F (20 C)
Dew Point: 50 F (10 C)
Relative Humidity: 52%
Pressure (altimeter): 29.85 in. Hg (1010 hPa)
ob: CYED 292100Z 31002KT 15SM SCT030 BKN040 OVC250 20/10 A2985 RMK CU3CU4CI1 DENSITY ALT 3648FT LAST OBS /NEXT 051300 UTC SLP111
cycle: 21

Station Type Date Time Source
CYED TAF 2022/06/29 20:09 UTC NOAA

TAF
AMD TAF
AMD CYED 292105Z 2920/3006 CNL
RMK END OF FLY PROGRAM. NXT FCST BY 300000Z

Example: see airport list